< < Back
Terminal Aerodrome Forecast


Current Version              Previous Versions:   1  2  3  4  5  6  7  8  9  

Terminal Aerodrome Forecast

092
FTUS44 KBMX 231700
TAFTCL
TAF
KTCL 231733Z 2318/2418 35005KT P6SM SKC=



Latest METAR

657
SAUS70 KWBC 240300 RRD
MTRTCL
METAR KTCL 240253Z 00000KT 10SM CLR 14/11 A2995 RMK AO2 SLP141 T01390111
51014


USA.gov is the U.S. government's official web portal to all federal, state and local government web resources and services.